sensor_id;sensor_type;location;lat;lon;timestamp;P1;durP1;ratioP1;P2;durP2;ratioP2
30466;SDS011;17258;52.560;13.046;2023-02-15T00:01:06;10.13;;;8.75;;
30466;SDS011;17258;52.560;13.046;2023-02-15T00:11:10;10.13;;;8.15;;
30466;SDS011;17258;52.560;13.046;2023-02-15T00:21:14;10.10;;;9.13;;
30466;SDS011;17258;52.560;13.046;2023-02-15T00:31:15;10.03;;;9.03;;
30466;SDS011;17258;52.560;13.046;2023-02-15T00:41:16;12.57;;;9.93;;
30466;SDS011;17258;52.560;13.046;2023-02-15T00:51:16;10.43;;;8.37;;
30466;SDS011;17258;52.560;13.046;2023-02-15T01:01:18;9.90;;;7.63;;
30466;SDS011;17258;52.560;13.046;2023-02-15T01:11:21;10.20;;;8.30;;
30466;SDS011;17258;52.560;13.046;2023-02-15T01:21:23;11.20;;;8.88;;
30466;SDS011;17258;52.560;13.046;2023-02-15T01:31:25;9.50;;;8.45;;
30466;SDS011;17258;52.560;13.046;2023-02-15T01:41:26;10.47;;;8.37;;
30466;SDS011;17258;52.560;13.046;2023-02-15T01:51:28;12.95;;;8.95;;
30466;SDS011;17258;52.560;13.046;2023-02-15T02:01:31;7.57;;;6.88;;
30466;SDS011;17258;52.560;13.046;2023-02-15T02:11:31;8.85;;;7.97;;
30466;SDS011;17258;52.560;13.046;2023-02-15T02:42:49;14.85;;;9.02;;
30466;SDS011;17258;52.560;13.046;2023-02-15T02:52:58;10.85;;;8.88;;
30466;SDS011;17258;52.560;13.046;2023-02-15T03:03:04;10.77;;;8.60;;
30466;SDS011;17258;52.560;13.046;2023-02-15T03:13:16;12.25;;;9.00;;
30466;SDS011;17258;52.560;13.046;2023-02-15T03:23:18;11.63;;;9.20;;
30466;SDS011;17258;52.560;13.046;2023-02-15T03:33:22;11.05;;;9.35;;
30466;SDS011;17258;52.560;13.046;2023-02-15T03:43:34;13.93;;;10.13;;
30466;SDS011;17258;52.560;13.046;2023-02-15T03:53:57;13.85;;;10.15;;
30466;SDS011;17258;52.560;13.046;2023-02-15T04:04:02;11.15;;;10.07;;
30466;SDS011;17258;52.560;13.046;2023-02-15T04:14:10;16.77;;;9.88;;
30466;SDS011;17258;52.560;13.046;2023-02-15T04:24:29;12.75;;;8.98;;
30466;SDS011;17258;52.560;13.046;2023-02-15T04:34:49;11.77;;;9.38;;
30466;SDS011;17258;52.560;13.046;2023-02-15T04:44:50;13.30;;;10.07;;
30466;SDS011;17258;52.560;13.046;2023-02-15T04:54:51;11.95;;;8.93;;
30466;SDS011;17258;52.560;13.046;2023-02-15T05:04:52;10.47;;;9.07;;
30466;SDS011;17258;52.560;13.046;2023-02-15T05:14:53;12.00;;;9.60;;
30466;SDS011;17258;52.560;13.046;2023-02-15T05:24:54;13.65;;;9.15;;
30466;SDS011;17258;52.560;13.046;2023-02-15T05:35:13;12.05;;;10.73;;
30466;SDS011;17258;52.560;13.046;2023-02-15T05:45:15;14.23;;;9.70;;
30466;SDS011;17258;52.560;13.046;2023-02-15T05:55:16;12.35;;;10.30;;
30466;SDS011;17258;52.560;13.046;2023-02-15T06:05:17;14.63;;;10.93;;
30466;SDS011;17258;52.560;13.046;2023-02-15T06:15:17;18.83;;;13.15;;
30466;SDS011;17258;52.560;13.046;2023-02-15T06:25:18;24.85;;;17.05;;
30466;SDS011;17258;52.560;13.046;2023-02-15T06:35:19;23.02;;;17.20;;
30466;SDS011;17258;52.560;13.046;2023-02-15T06:45:19;24.57;;;15.87;;
30466;SDS011;17258;52.560;13.046;2023-02-15T06:55:21;25.35;;;15.63;;
30466;SDS011;17258;52.560;13.046;2023-02-15T07:05:22;20.77;;;15.25;;
30466;SDS011;17258;52.560;13.046;2023-02-15T07:15:24;22.42;;;13.48;;
30466;SDS011;17258;52.560;13.046;2023-02-15T07:25:24;16.50;;;12.73;;
30466;SDS011;17258;52.560;13.046;2023-02-15T07:35:25;20.53;;;16.77;;
30466;SDS011;17258;52.560;13.046;2023-02-15T07:45:26;19.27;;;16.45;;
30466;SDS011;17258;52.560;13.046;2023-02-15T07:55:26;18.42;;;15.70;;
30466;SDS011;17258;52.560;13.046;2023-02-15T08:05:28;20.37;;;17.77;;
30466;SDS011;17258;52.560;13.046;2023-02-15T08:15:28;23.10;;;20.73;;
30466;SDS011;17258;52.560;13.046;2023-02-15T08:25:29;21.73;;;19.63;;
30466;SDS011;17258;52.560;13.046;2023-02-15T08:35:30;24.93;;;22.50;;
30466;SDS011;17258;52.560;13.046;2023-02-15T08:45:31;24.40;;;22.10;;
30466;SDS011;17258;52.560;13.046;2023-02-15T08:55:32;24.70;;;22.50;;
30466;SDS011;17258;52.560;13.046;2023-02-15T09:05:32;27.33;;;24.77;;
30466;SDS011;17258;52.560;13.046;2023-02-15T09:15:33;26.20;;;23.77;;
30466;SDS011;17258;52.560;13.046;2023-02-15T09:25:36;25.33;;;23.27;;
30466;SDS011;17258;52.560;13.046;2023-02-15T09:35:37;25.15;;;22.98;;
30466;SDS011;17258;52.560;13.046;2023-02-15T09:45:43;24.38;;;22.35;;
30466;SDS011;17258;52.560;13.046;2023-02-15T09:56:32;23.35;;;20.98;;
30466;SDS011;17258;52.560;13.046;2023-02-15T10:17:14;26.42;;;24.02;;
30466;SDS011;17258;52.560;13.046;2023-02-15T10:27:53;26.58;;;24.02;;
30466;SDS011;17258;52.560;13.046;2023-02-15T10:38:00;28.25;;;25.52;;
30466;SDS011;17258;52.560;13.046;2023-02-15T11:10:01;26.77;;;24.50;;
30466;SDS011;17258;52.560;13.046;2023-02-15T11:20:33;29.63;;;26.48;;
30466;SDS011;17258;52.560;13.046;2023-02-15T11:30:43;25.23;;;22.75;;
30466;SDS011;17258;52.560;13.046;2023-02-15T11:40:53;28.83;;;26.02;;
30466;SDS011;17258;52.560;13.046;2023-02-15T11:50:58;28.55;;;26.23;;
30466;SDS011;17258;52.560;13.046;2023-02-15T12:01:02;29.70;;;26.85;;
30466;SDS011;17258;52.560;13.046;2023-02-15T12:11:17;28.58;;;25.88;;
30466;SDS011;17258;52.560;13.046;2023-02-15T12:21:33;27.85;;;25.45;;
30466;SDS011;17258;52.560;13.046;2023-02-15T12:31:45;27.05;;;24.60;;
30466;SDS011;17258;52.560;13.046;2023-02-15T12:51:58;16.83;;;14.20;;
30466;SDS011;17258;52.560;13.046;2023-02-15T13:02:01;16.63;;;14.97;;
30466;SDS011;17258;52.560;13.046;2023-02-15T13:12:20;15.18;;;13.85;;
30466;SDS011;17258;52.560;13.046;2023-02-15T13:22:28;21.00;;;14.50;;
30466;SDS011;17258;52.560;13.046;2023-02-15T13:32:41;17.38;;;13.20;;
30466;SDS011;17258;52.560;13.046;2023-02-15T13:42:46;16.08;;;14.27;;
30466;SDS011;17258;52.560;13.046;2023-02-15T13:53:02;18.38;;;12.18;;
30466;SDS011;17258;52.560;13.046;2023-02-15T14:03:21;14.68;;;13.18;;
30466;SDS011;17258;52.560;13.046;2023-02-15T14:14:05;20.17;;;13.20;;
30466;SDS011;17258;52.560;13.046;2023-02-15T14:24:37;12.67;;;11.43;;
30466;SDS011;17258;52.560;13.046;2023-02-15T14:34:50;14.48;;;11.63;;
30466;SDS011;17258;52.560;13.046;2023-02-15T14:45:01;10.63;;;9.60;;
30466;SDS011;17258;52.560;13.046;2023-02-15T14:55:36;12.07;;;10.75;;
30466;SDS011;17258;52.560;13.046;2023-02-15T15:05:45;12.23;;;10.97;;
30466;SDS011;17258;52.560;13.046;2023-02-15T15:15:51;12.07;;;10.23;;
30466;SDS011;17258;52.560;13.046;2023-02-15T15:25:57;12.73;;;11.43;;
30466;SDS011;17258;52.560;13.046;2023-02-15T15:36:28;11.73;;;10.55;;
30466;SDS011;17258;52.560;13.046;2023-02-15T15:57:28;16.30;;;11.68;;
30466;SDS011;17258;52.560;13.046;2023-02-15T16:07:35;16.23;;;14.55;;
30466;SDS011;17258;52.560;13.046;2023-02-15T16:17:35;17.52;;;15.82;;
30466;SDS011;17258;52.560;13.046;2023-02-15T16:27:37;16.03;;;14.37;;
30466;SDS011;17258;52.560;13.046;2023-02-15T16:37:41;17.98;;;10.52;;
30466;SDS011;17258;52.560;13.046;2023-02-15T16:47:43;15.60;;;13.65;;
30466;SDS011;17258;52.560;13.046;2023-02-15T16:57:47;13.38;;;11.13;;
30466;SDS011;17258;52.560;13.046;2023-02-15T17:08:06;14.65;;;13.00;;
30466;SDS011;17258;52.560;13.046;2023-02-15T17:18:20;18.60;;;13.27;;
30466;SDS011;17258;52.560;13.046;2023-02-15T17:28:24;14.68;;;11.80;;
30466;SDS011;17258;52.560;13.046;2023-02-15T17:38:28;18.23;;;14.93;;
30466;SDS011;17258;52.560;13.046;2023-02-15T17:48:33;19.90;;;15.68;;
30466;SDS011;17258;52.560;13.046;2023-02-15T17:58:37;17.38;;;15.43;;
30466;SDS011;17258;52.560;13.046;2023-02-15T18:08:39;20.50;;;15.75;;
30466;SDS011;17258;52.560;13.046;2023-02-15T18:18:58;19.50;;;15.23;;
30466;SDS011;17258;52.560;13.046;2023-02-15T18:28:59;17.70;;;14.57;;
30466;SDS011;17258;52.560;13.046;2023-02-15T18:38:59;19.50;;;16.67;;
30466;SDS011;17258;52.560;13.046;2023-02-15T18:49:02;17.67;;;14.55;;
30466;SDS011;17258;52.560;13.046;2023-02-15T18:59:03;21.70;;;15.87;;
30466;SDS011;17258;52.560;13.046;2023-02-15T19:09:03;21.00;;;15.70;;
30466;SDS011;17258;52.560;13.046;2023-02-15T19:19:04;21.43;;;19.27;;
30466;SDS011;17258;52.560;13.046;2023-02-15T19:29:04;25.90;;;19.97;;
30466;SDS011;17258;52.560;13.046;2023-02-15T19:39:05;20.20;;;17.52;;
30466;SDS011;17258;52.560;13.046;2023-02-15T19:49:39;23.67;;;21.05;;
30466;SDS011;17258;52.560;13.046;2023-02-15T19:59:40;25.05;;;21.25;;
30466;SDS011;17258;52.560;13.046;2023-02-15T20:09:41;22.20;;;18.92;;
30466;SDS011;17258;52.560;13.046;2023-02-15T20:19:43;18.23;;;16.30;;
30466;SDS011;17258;52.560;13.046;2023-02-15T20:29:45;17.65;;;15.82;;
30466;SDS011;17258;52.560;13.046;2023-02-15T20:39:46;35.20;;;21.85;;
30466;SDS011;17258;52.560;13.046;2023-02-15T20:49:46;24.90;;;20.30;;
30466;SDS011;17258;52.560;13.046;2023-02-15T20:59:47;21.43;;;15.67;;
30466;SDS011;17258;52.560;13.046;2023-02-15T21:09:48;15.13;;;12.33;;
30466;SDS011;17258;52.560;13.046;2023-02-15T21:19:48;20.83;;;14.23;;
30466;SDS011;17258;52.560;13.046;2023-02-15T21:29:49;19.42;;;17.05;;
30466;SDS011;17258;52.560;13.046;2023-02-15T21:39:50;16.73;;;14.97;;
30466;SDS011;17258;52.560;13.046;2023-02-15T21:49:50;17.20;;;12.20;;
30466;SDS011;17258;52.560;13.046;2023-02-15T21:59:51;15.15;;;13.60;;
30466;SDS011;17258;52.560;13.046;2023-02-15T22:09:52;17.90;;;13.83;;
30466;SDS011;17258;52.560;13.046;2023-02-15T22:19:53;13.55;;;12.13;;
30466;SDS011;17258;52.560;13.046;2023-02-15T22:41:10;13.73;;;12.30;;
30466;SDS011;17258;52.560;13.046;2023-02-15T22:51:11;13.40;;;10.50;;
30466;SDS011;17258;52.560;13.046;2023-02-15T23:01:23;12.32;;;9.50;;
30466;SDS011;17258;52.560;13.046;2023-02-15T23:11:33;16.27;;;10.65;;
30466;SDS011;17258;52.560;13.046;2023-02-15T23:21:33;11.40;;;9.70;;
30466;SDS011;17258;52.560;13.046;2023-02-15T23:31:34;9.83;;;8.87;;
30466;SDS011;17258;52.560;13.046;2023-02-15T23:41:37;12.15;;;8.82;;
30466;SDS011;17258;52.560;13.046;2023-02-15T23:51:38;8.95;;;8.10;;
